Time;durP1;ratioP1;P1;durP2;ratioP2;P2;SDS_P1;SDS_P2;PMS_P1;PMS_P2;Temp;Humidity;BMP_temperature;BMP_pressure;BME280_temperature;BME280_humidity;BME280_pressure;Samples;Min_cycle;Max_cycle;Signal;HPM_P1;HPM_P2
2022/12/06 00:05:33;;;;;;;;;;;1.00;99.90;;;;;;12344942;28;20306;-39
2022/12/06 00:11:36;;;;;;;;;;;1.00;99.90;;;;;;12349688;28;20310;-39
2022/12/06 00:17:37;;;;;;;;;;;1.00;99.90;;;;;;12340547;28;19931;-39
2022/12/06 00:23:45;;;;;;;;;;;1.00;99.90;;;;;;12337354;28;20069;-39
2022/12/06 00:29:46;;;;;;;;;;;1.10;99.90;;;;;;12342586;28;20379;-39
2022/12/06 00:35:55;;;;;;;;;;;1.10;99.90;;;;;;12336343;28;19926;-38
2022/12/06 00:41:57;;;;;;;;;;;1.10;99.90;;;;;;12347076;28;19927;-39
2022/12/06 00:47:58;;;;;;;;;;;1.10;99.90;;;;;;12331471;28;19973;-38
2022/12/06 00:54:01;;;;;;;;;;;1.20;99.90;;;;;;12346778;28;19934;-39
2022/12/06 01:00:03;;;;;;;;;;;1.10;99.90;;;;;;12343222;28;20383;-39
2022/12/06 01:06:09;;;;;;;;;;;1.10;99.90;;;;;;12344364;28;19930;-39
2022/12/06 01:12:11;;;;;;;;;;;1.10;99.90;;;;;;12328183;28;19926;-38
2022/12/06 01:18:13;;;;;;;;;;;1.20;99.90;;;;;;12331617;28;19938;-39
2022/12/06 01:24:14;;;;;;;;;;;1.20;99.90;;;;;;12340135;28;19930;-39
2022/12/06 01:30:16;;;;;;;;;;;1.20;99.90;;;;;;12342136;28;19933;-39
2022/12/06 01:36:19;;;;;;;;;;;1.20;99.90;;;;;;12337635;28;20394;-39
2022/12/06 01:42:21;;;;;;;;;;;1.20;99.90;;;;;;12335217;28;19934;-39
2022/12/06 01:48:24;;;;;;;;;;;1.10;99.90;;;;;;12342276;28;19926;-39
2022/12/06 01:54:26;;;;;;;;;;;1.10;99.90;;;;;;12335430;28;20066;-39
2022/12/06 02:00:28;;;;;;;;;;;1.10;99.90;;;;;;12340656;28;19926;-39
2022/12/06 02:06:30;;;;;;;;;;;1.10;99.90;;;;;;12323225;28;20028;-38
2022/12/06 02:12:32;;;;;;;;;;;1.10;99.90;;;;;;12340763;28;19926;-38
2022/12/06 02:18:42;;;;;;;;;;;1.10;99.90;;;;;;12331733;28;20294;-38
2022/12/06 02:25:09;;;;;;;;;;;1.10;99.90;;;;;;12336495;28;19930;-39
2022/12/06 02:31:16;;;;;;;;;;;1.20;99.90;;;;;;12337860;28;19933;-39
2022/12/06 02:37:38;;;;;;;;;;;1.00;99.90;;;;;;12339081;28;19933;-41
2022/12/06 02:43:41;;;;;;;;;;;1.00;99.90;;;;;;12317253;28;19937;-38
2022/12/06 02:49:45;;;;;;;;;;;1.00;99.90;;;;;;12331733;28;19929;-39
2022/12/06 02:55:48;;;;;;;;;;;1.00;99.90;;;;;;12331199;28;19942;-39
2022/12/06 03:01:55;;;;;;;;;;;1.00;99.90;;;;;;12338501;28;19961;-38
2022/12/06 03:07:59;;;;;;;;;;;1.00;99.90;;;;;;12336720;28;19940;-38
2022/12/06 03:14:03;;;;;;;;;;;0.90;99.90;;;;;;12341891;28;19926;-38
2022/12/06 03:20:11;;;;;;;;;;;1.00;99.90;;;;;;12347352;28;19927;-39
2022/12/06 03:26:15;;;;;;;;;;;1.00;99.90;;;;;;12302594;28;20032;-39
2022/12/06 03:32:19;;;;;;;;;;;0.90;99.90;;;;;;12346618;28;19926;-39
2022/12/06 03:38:36;;;;;;;;;;;0.90;99.90;;;;;;12345657;28;19927;-38
2022/12/06 03:44:37;;;;;;;;;;;1.10;99.90;;;;;;12340354;28;19930;-39
2022/12/06 03:50:44;;;;;;;;;;;1.10;99.90;;;;;;12337302;28;19978;-39
2022/12/06 03:56:46;;;;;;;;;;;1.00;99.90;;;;;;12332909;28;19954;-39
2022/12/06 04:02:48;;;;;;;;;;;1.00;99.90;;;;;;12339517;28;20440;-39
2022/12/06 04:08:50;;;;;;;;;;;1.00;99.90;;;;;;12346458;28;19932;-39
2022/12/06 04:14:51;;;;;;;;;;;1.00;99.90;;;;;;12341141;28;20381;-39
2022/12/06 04:39:58;;;;;;;;;;;1.10;99.90;;;;;;12337602;28;19934;-38
2022/12/06 04:46:01;;;;;;;;;;;1.10;99.90;;;;;;12344294;28;19926;-39
2022/12/06 04:52:03;;;;;;;;;;;1.20;99.90;;;;;;12337839;28;19941;-39
2022/12/06 04:58:05;;;;;;;;;;;1.20;99.90;;;;;;12316383;28;19934;-39
2022/12/06 05:04:07;;;;;;;;;;;1.20;99.90;;;;;;12339652;28;20001;-39
2022/12/06 05:10:09;;;;;;;;;;;1.20;99.90;;;;;;12338205;28;19927;-38
2022/12/06 05:16:11;;;;;;;;;;;1.20;99.90;;;;;;12331895;28;19957;-39
2022/12/06 05:22:12;;;;;;;;;;;1.20;99.90;;;;;;12336771;28;19930;-39
2022/12/06 05:28:14;;;;;;;;;;;1.30;99.90;;;;;;12332369;28;19926;-39
2022/12/06 05:34:16;;;;;;;;;;;1.30;99.90;;;;;;12339291;28;19926;-39
2022/12/06 05:40:18;;;;;;;;;;;1.30;99.90;;;;;;12337492;28;19930;-39
2022/12/06 05:46:19;;;;;;;;;;;1.30;99.90;;;;;;12340199;28;19953;-39
2022/12/06 05:52:21;;;;;;;;;;;1.30;99.90;;;;;;12337317;28;19927;-38
2022/12/06 05:58:23;;;;;;;;;;;1.30;99.90;;;;;;12341010;28;19933;-39
2022/12/06 06:04:25;;;;;;;;;;;1.40;99.90;;;;;;12341602;28;20583;-39
2022/12/06 06:10:26;;;;;;;;;;;1.40;99.90;;;;;;12336240;28;19933;-39
2022/12/06 06:16:28;;;;;;;;;;;1.40;99.90;;;;;;12333998;28;19972;-39
2022/12/06 06:22:34;;;;;;;;;;;1.50;99.90;;;;;;12316997;28;20025;-39
2022/12/06 06:28:36;;;;;;;;;;;1.50;99.90;;;;;;12332271;28;20742;-38
2022/12/06 06:34:37;;;;;;;;;;;1.50;99.90;;;;;;12338983;28;19926;-39
2022/12/06 06:40:39;;;;;;;;;;;1.60;99.90;;;;;;12334967;28;19930;-39
2022/12/06 06:46:41;;;;;;;;;;;1.60;99.90;;;;;;12349926;28;20021;-39
2022/12/06 06:52:43;;;;;;;;;;;1.60;99.90;;;;;;12342630;28;19949;-39
2022/12/06 06:58:45;;;;;;;;;;;1.60;99.90;;;;;;12334869;28;19937;-38
2022/12/06 07:04:48;;;;;;;;;;;1.70;99.90;;;;;;12366523;28;20293;-39
2022/12/06 07:10:50;;;;;;;;;;;1.70;99.90;;;;;;12348343;28;20354;-39
2022/12/06 07:16:52;;;;;;;;;;;1.70;99.90;;;;;;12338373;28;19933;-39
2022/12/06 07:22:54;;;;;;;;;;;1.80;99.90;;;;;;12339390;28;20016;-39
2022/12/06 07:28:57;;;;;;;;;;;1.80;99.90;;;;;;12329314;28;19930;-39
2022/12/06 07:34:58;;;;;;;;;;;1.90;99.90;;;;;;12347343;28;19938;-39
2022/12/06 07:41:01;;;;;;;;;;;1.80;99.90;;;;;;12332796;28;19926;-38
2022/12/06 07:47:05;;;;;;;;;;;1.90;99.90;;;;;;12346988;28;19956;-39
2022/12/06 07:53:07;;;;;;;;;;;1.90;99.90;;;;;;12340952;28;20291;-38
2022/12/06 07:59:09;;;;;;;;;;;2.00;99.90;;;;;;12343237;28;19926;-39
2022/12/06 08:05:11;;;;;;;;;;;2.10;99.90;;;;;;12343372;28;19930;-38
2022/12/06 08:11:13;;;;;;;;;;;2.20;99.90;;;;;;12326008;28;20329;-38
2022/12/06 08:17:15;;;;;;;;;;;2.10;99.90;;;;;;12341582;28;19930;-39
2022/12/06 08:23:17;;;;;;;;;;;2.20;99.90;;;;;;12341186;28;19926;-38
2022/12/06 08:29:19;;;;;;;;;;;2.30;99.90;;;;;;12331927;28;19930;-38
2022/12/06 08:35:21;;;;;;;;;;;2.40;99.90;;;;;;12339372;28;19932;-39
2022/12/06 08:47:43;;;;;;;;;;;2.50;99.90;;;;;;12338109;28;19926;-39
2022/12/06 08:53:44;;;;;;;;;;;2.60;99.90;;;;;;12341504;28;19972;-39
2022/12/06 08:59:46;;;;;;;;;;;2.60;99.90;;;;;;12337796;28;20313;-39
2022/12/06 09:05:48;;;;;;;;;;;2.80;99.90;;;;;;12342765;28;20020;-39
2022/12/06 09:11:50;;;;;;;;;;;2.90;99.90;;;;;;12337294;28;19974;-39
2022/12/06 09:17:53;;;;;;;;;;;2.90;99.90;;;;;;12336318;28;20462;-39
2022/12/06 09:23:56;;;;;;;;;;;3.10;99.90;;;;;;12337894;28;20383;-39
2022/12/06 09:29:58;;;;;;;;;;;3.10;99.90;;;;;;12337486;28;19932;-39
2022/12/06 09:36:01;;;;;;;;;;;3.20;99.90;;;;;;12328669;28;19965;-38
2022/12/06 09:42:15;;;;;;;;;;;3.20;99.90;;;;;;12336741;28;20430;-39
2022/12/06 09:48:20;;;;;;;;;;;3.30;99.90;;;;;;12341256;28;19929;-39
2022/12/06 09:54:35;;;;;;;;;;;3.30;99.90;;;;;;12333820;28;20310;-39
2022/12/06 10:00:42;;;;;;;;;;;3.50;99.90;;;;;;12339613;28;19934;-38
2022/12/06 10:06:52;;;;;;;;;;;3.40;99.90;;;;;;12335006;28;19926;-39
2022/12/06 10:13:00;;;;;;;;;;;3.40;99.90;;;;;;12339240;28;20394;-38
2022/12/06 10:19:21;;;;;;;;;;;3.50;99.90;;;;;;12338857;28;19926;-39
2022/12/06 10:25:25;;;;;;;;;;;3.50;99.90;;;;;;12310567;28;19926;-39
2022/12/06 10:31:35;;;;;;;;;;;3.50;99.90;;;;;;12338182;28;19926;-39
2022/12/06 10:37:37;;;;;;;;;;;3.50;99.90;;;;;;12338086;28;19930;-39
2022/12/06 10:44:00;;;;;;;;;;;3.60;99.90;;;;;;12333728;28;19957;-39
2022/12/06 10:50:13;;;;;;;;;;;3.60;99.90;;;;;;12340949;28;19950;-38
2022/12/06 10:56:19;;;;;;;;;;;3.70;99.90;;;;;;12336541;28;19926;-39
2022/12/06 11:02:24;;;;;;;;;;;3.80;99.90;;;;;;12334345;28;20279;-39
2022/12/06 11:08:31;;;;;;;;;;;3.80;99.90;;;;;;12337572;28;19972;-38
2022/12/06 11:14:37;;;;;;;;;;;3.80;99.90;;;;;;12314630;28;20322;-38
2022/12/06 11:20:57;;;;;;;;;;;3.80;99.90;;;;;;12336094;28;19933;-39
2022/12/06 11:27:17;;;;;;;;;;;3.90;99.90;;;;;;12333162;28;19933;-39
2022/12/06 11:33:22;;;;;;;;;;;3.90;99.90;;;;;;12335808;28;19930;-38
2022/12/06 11:39:24;;;;;;;;;;;4.00;99.90;;;;;;12346569;28;20485;-38
2022/12/06 11:45:28;;;;;;;;;;;3.90;99.90;;;;;;12346482;28;19953;-39
2022/12/06 11:51:30;;;;;;;;;;;3.90;99.90;;;;;;12347073;28;19949;-39
2022/12/06 11:57:34;;;;;;;;;;;3.90;99.90;;;;;;12342407;28;19973;-39
2022/12/06 12:03:37;;;;;;;;;;;3.80;99.90;;;;;;12341895;28;19930;-38
2022/12/06 12:09:48;;;;;;;;;;;3.80;99.90;;;;;;12347012;28;19980;-38
2022/12/06 12:15:51;;;;;;;;;;;3.70;99.90;;;;;;12333528;28;20050;-38
2022/12/06 12:21:54;;;;;;;;;;;3.80;99.90;;;;;;12344905;28;20302;-38
2022/12/06 12:27:57;;;;;;;;;;;3.80;99.90;;;;;;12334538;28;20409;-39
2022/12/06 12:34:11;;;;;;;;;;;3.90;99.90;;;;;;12340709;28;19976;-38
2022/12/06 12:40:25;;;;;;;;;;;3.80;99.90;;;;;;12343060;28;20293;-38
2022/12/06 12:46:27;;;;;;;;;;;3.80;99.90;;;;;;12343670;28;19989;-38
2022/12/06 12:52:37;;;;;;;;;;;3.80;99.90;;;;;;12340931;28;20160;-38
2022/12/06 12:58:40;;;;;;;;;;;3.80;99.90;;;;;;12338467;28;20267;-38
2022/12/06 13:04:44;;;;;;;;;;;3.80;99.90;;;;;;12341002;28;19937;-38
2022/12/06 13:10:47;;;;;;;;;;;3.80;99.90;;;;;;12336514;28;19937;-38
2022/12/06 13:16:57;;;;;;;;;;;3.80;99.90;;;;;;12346224;28;19926;-38
2022/12/06 13:23:01;;;;;;;;;;;3.80;99.90;;;;;;12343387;28;19926;-38
2022/12/06 13:29:13;;;;;;;;;;;3.90;99.90;;;;;;12327112;28;19926;-38
2022/12/06 13:35:18;;;;;;;;;;;3.90;99.90;;;;;;12343397;28;20374;-38
2022/12/06 13:47:59;;;;;;;;;;;3.90;99.90;;;;;;12345626;28;19949;-39
2022/12/06 13:54:06;;;;;;;;;;;3.80;99.90;;;;;;12342426;28;19941;-38
2022/12/06 14:00:27;;;;;;;;;;;3.90;99.90;;;;;;12343056;28;19967;-39
2022/12/06 14:06:44;;;;;;;;;;;3.80;99.90;;;;;;12343540;28;19937;-38
2022/12/06 14:12:57;;;;;;;;;;;3.80;99.90;;;;;;12328508;28;20705;-40
2022/12/06 14:18:59;;;;;;;;;;;3.80;99.90;;;;;;12343494;28;19933;-39
2022/12/06 14:25:21;;;;;;;;;;;3.90;99.90;;;;;;12341613;28;19934;-39
2022/12/06 14:31:35;;;;;;;;;;;3.80;99.90;;;;;;12339493;28;19926;-39
2022/12/06 14:37:36;;;;;;;;;;;3.80;99.90;;;;;;12344645;28;19934;-38
2022/12/06 14:43:39;;;;;;;;;;;3.80;99.90;;;;;;12334676;28;19926;-38
2022/12/06 14:56:01;;;;;;;;;;;3.80;99.90;;;;;;12343479;28;20416;-38
2022/12/06 15:02:19;;;;;;;;;;;3.70;99.90;;;;;;12340419;28;20454;-39
2022/12/06 15:08:26;;;;;;;;;;;3.70;99.90;;;;;;12342791;28;19985;-38
2022/12/06 15:14:44;;;;;;;;;;;3.70;99.90;;;;;;12348837;28;19934;-38
2022/12/06 15:20:46;;;;;;;;;;;3.70;99.90;;;;;;12340823;28;19926;-39
2022/12/06 15:26:48;;;;;;;;;;;3.60;99.90;;;;;;12346373;28;20294;-38
2022/12/06 15:32:49;;;;;;;;;;;3.70;99.90;;;;;;12351692;28;19934;-39
2022/12/06 15:38:51;;;;;;;;;;;3.60;99.90;;;;;;12349459;28;19937;-38
2022/12/06 15:44:54;;;;;;;;;;;3.60;99.90;;;;;;12340139;28;19938;-38
2022/12/06 15:50:56;;;;;;;;;;;3.60;99.90;;;;;;12351001;28;20370;-38
2022/12/06 15:56:58;;;;;;;;;;;3.50;99.90;;;;;;12330907;28;19926;-38
2022/12/06 16:03:00;;;;;;;;;;;3.50;99.90;;;;;;12342924;28;19926;-38
2022/12/06 16:09:02;;;;;;;;;;;3.50;99.90;;;;;;12347336;28;19968;-39
2022/12/06 16:15:03;;;;;;;;;;;3.40;99.90;;;;;;12346648;28;19933;-38
2022/12/06 16:21:05;;;;;;;;;;;3.30;99.90;;;;;;12347842;28;19942;-39
2022/12/06 16:27:07;;;;;;;;;;;3.30;99.90;;;;;;12335437;28;19937;-38
2022/12/06 16:33:13;;;;;;;;;;;3.30;99.90;;;;;;12345750;28;19937;-38
2022/12/06 16:39:15;;;;;;;;;;;3.20;99.90;;;;;;12348954;28;19933;-38
2022/12/06 16:45:17;;;;;;;;;;;3.00;99.90;;;;;;12347937;28;19930;-39
2022/12/06 16:51:19;;;;;;;;;;;3.00;99.90;;;;;;12333618;28;20310;-38
2022/12/06 16:57:20;;;;;;;;;;;3.00;99.90;;;;;;12342610;28;19933;-38
2022/12/06 17:03:22;;;;;;;;;;;3.00;99.90;;;;;;12348858;28;20267;-38
2022/12/06 17:09:24;;;;;;;;;;;3.00;99.90;;;;;;12342461;28;19930;-38
2022/12/06 17:15:25;;;;;;;;;;;2.90;99.90;;;;;;12345080;28;19953;-39
2022/12/06 17:21:27;;;;;;;;;;;2.70;99.90;;;;;;12344727;28;19934;-38
2022/12/06 17:27:29;;;;;;;;;;;2.60;99.90;;;;;;12344157;28;19926;-38
2022/12/06 17:33:31;;;;;;;;;;;2.70;99.90;;;;;;12331244;28;19930;-38
2022/12/06 17:39:33;;;;;;;;;;;2.70;99.90;;;;;;12343473;28;19937;-39
2022/12/06 17:45:34;;;;;;;;;;;2.80;99.90;;;;;;12342862;28;19926;-38
2022/12/06 17:51:36;;;;;;;;;;;2.70;99.90;;;;;;12342942;28;20041;-38
2022/12/06 17:57:38;;;;;;;;;;;2.80;99.90;;;;;;12332783;28;19968;-39
2022/12/06 18:03:39;;;;;;;;;;;2.80;99.90;;;;;;12340348;28;19926;-39
2022/12/06 18:09:41;;;;;;;;;;;2.70;99.90;;;;;;12346000;28;19969;-38
2022/12/06 18:15:43;;;;;;;;;;;2.70;99.90;;;;;;12328070;28;19989;-38
2022/12/06 18:21:44;;;;;;;;;;;2.80;99.90;;;;;;12342353;28;20382;-38
2022/12/06 18:27:47;;;;;;;;;;;2.90;99.90;;;;;;12341636;28;19933;-39
2022/12/06 18:33:49;;;;;;;;;;;2.90;99.90;;;;;;12342622;28;19940;-38
2022/12/06 18:39:51;;;;;;;;;;;3.00;99.90;;;;;;12346082;28;19945;-39
2022/12/06 18:46:00;;;;;;;;;;;3.00;99.90;;;;;;12352016;28;19926;-38
2022/12/06 18:52:02;;;;;;;;;;;3.00;99.90;;;;;;12353386;28;19926;-38
2022/12/06 18:58:03;;;;;;;;;;;3.10;99.90;;;;;;12352845;28;19926;-38
2022/12/06 19:04:06;;;;;;;;;;;3.20;99.90;;;;;;12349390;28;19942;-39
2022/12/06 19:10:08;;;;;;;;;;;3.10;99.90;;;;;;12356141;28;19980;-38
2022/12/06 19:16:10;;;;;;;;;;;3.10;99.90;;;;;;12340814;28;20031;-38
2022/12/06 19:22:12;;;;;;;;;;;3.20;99.90;;;;;;12349944;28;19926;-38
2022/12/06 19:28:13;;;;;;;;;;;3.20;99.90;;;;;;12349826;28;19926;-39
2022/12/06 19:34:16;;;;;;;;;;;3.20;99.90;;;;;;12337610;28;19926;-38
2022/12/06 19:40:18;;;;;;;;;;;3.20;99.90;;;;;;12349905;28;20290;-39
2022/12/06 19:46:21;;;;;;;;;;;3.30;99.90;;;;;;12351538;28;19926;-38
2022/12/06 19:52:23;;;;;;;;;;;3.30;99.90;;;;;;12349019;28;20076;-38
2022/12/06 19:58:31;;;;;;;;;;;3.40;99.90;;;;;;12349447;28;19930;-38
2022/12/06 20:04:34;;;;;;;;;;;3.40;99.90;;;;;;12346233;28;19953;-39
2022/12/06 20:10:37;;;;;;;;;;;3.40;99.90;;;;;;12351050;28;19933;-39
2022/12/06 20:16:39;;;;;;;;;;;3.40;99.90;;;;;;12332094;28;19931;-39
2022/12/06 20:22:41;;;;;;;;;;;3.40;99.90;;;;;;12344810;28;19934;-39
2022/12/06 20:28:44;;;;;;;;;;;3.40;99.90;;;;;;12344526;28;19968;-39
2022/12/06 20:34:45;;;;;;;;;;;3.50;99.90;;;;;;12347958;28;20298;-38
2022/12/06 20:40:47;;;;;;;;;;;3.50;99.90;;;;;;12345000;28;19926;-38
2022/12/06 20:46:49;;;;;;;;;;;3.50;99.90;;;;;;12348355;28;19926;-39
2022/12/06 20:52:51;;;;;;;;;;;3.50;99.90;;;;;;12347151;28;19930;-38
2022/12/06 20:58:53;;;;;;;;;;;3.50;99.90;;;;;;12347221;28;19926;-38
2022/12/06 21:04:56;;;;;;;;;;;3.50;99.90;;;;;;12346729;28;20038;-39
2022/12/06 21:10:58;;;;;;;;;;;3.50;99.90;;;;;;12344942;28;20459;-38
2022/12/06 21:17:20;;;;;;;;;;;3.50;99.90;;;;;;12346724;28;20290;-39
2022/12/06 21:23:22;;;;;;;;;;;3.50;99.90;;;;;;12345481;28;19930;-38
2022/12/06 21:29:24;;;;;;;;;;;3.50;99.90;;;;;;12346280;28;19930;-39
2022/12/06 21:35:35;;;;;;;;;;;3.50;99.90;;;;;;12342310;28;20048;-38
2022/12/06 21:41:36;;;;;;;;;;;3.50;99.90;;;;;;12341558;28;19934;-39
2022/12/06 21:47:38;;;;;;;;;;;3.60;99.90;;;;;;12344137;28;19974;-39
2022/12/06 21:53:40;;;;;;;;;;;3.50;99.90;;;;;;12331660;28;19934;-38
2022/12/06 21:59:42;;;;;;;;;;;3.50;99.90;;;;;;12344099;28;19965;-38
2022/12/06 22:05:44;;;;;;;;;;;3.50;99.90;;;;;;12334533;28;19934;-39
2022/12/06 22:11:46;;;;;;;;;;;3.50;99.90;;;;;;12350560;28;19941;-39
2022/12/06 22:17:47;;;;;;;;;;;3.50;99.90;;;;;;12333143;28;20322;-38
2022/12/06 22:23:50;;;;;;;;;;;3.50;99.90;;;;;;12343612;28;19926;-39
2022/12/06 22:29:52;;;;;;;;;;;3.50;99.90;;;;;;12340591;28;20421;-38
2022/12/06 22:35:58;;;;;;;;;;;3.50;99.90;;;;;;12341024;28;20294;-38
2022/12/06 22:41:59;;;;;;;;;;;3.50;99.90;;;;;;12337076;28;20559;-38
2022/12/06 22:48:01;;;;;;;;;;;3.50;99.90;;;;;;12343714;28;20052;-38
2022/12/06 22:54:04;;;;;;;;;;;3.60;99.90;;;;;;12341251;28;19933;-39
2022/12/06 23:00:07;;;;;;;;;;;3.70;99.90;;;;;;12344166;28;19926;-38
2022/12/06 23:06:08;;;;;;;;;;;3.60;99.90;;;;;;12300887;28;19934;-38
2022/12/06 23:12:10;;;;;;;;;;;3.60;99.90;;;;;;12340907;28;19934;-38
2022/12/06 23:18:12;;;;;;;;;;;3.50;99.90;;;;;;12343646;28;19926;-39
2022/12/06 23:24:14;;;;;;;;;;;3.60;99.90;;;;;;12341089;28;19978;-38
2022/12/06 23:30:16;;;;;;;;;;;3.50;99.90;;;;;;12347973;28;19926;-38
2022/12/06 23:36:19;;;;;;;;;;;3.60;99.90;;;;;;12350157;28;19930;-38
2022/12/06 23:42:21;;;;;;;;;;;3.50;99.90;;;;;;12349317;28;19930;-39
2022/12/06 23:48:23;;;;;;;;;;;3.60;99.90;;;;;;12349930;28;19926;-39
2022/12/06 23:54:24;;;;;;;;;;;3.60;99.90;;;;;;12346040;28;20305;-38
